Time;durP1;ratioP1;P1;durP2;ratioP2;P2;SDS_P1;SDS_P2;PMS_P1;PMS_P2;Temp;Humidity;BMP_temperature;BMP_pressure;BME280_temperature;BME280_humidity;BME280_pressure;Samples;Min_cycle;Max_cycle;Signal;HPM_P1;HPM_P2
2023/03/12 00:00:49;;;;;;;42.92;7.72;;;;;;;7.69;100.00;99293.69;5081090;28;20064;-80
2023/03/12 00:03:15;;;;;;;57.42;7.60;;;;;;;7.73;100.00;99278.44;5083322;28;20048;-80
2023/03/12 00:05:42;;;;;;;72.03;8.38;;;;;;;7.77;100.00;99284.22;5079937;28;20083;-80
2023/03/12 00:08:09;;;;;;;53.40;7.72;;;;;;;7.78;100.00;99285.84;5062759;28;20112;-79
2023/03/12 00:10:37;;;;;;;53.33;7.53;;;;;;;7.78;100.00;99291.97;5081928;28;20036;-79
2023/03/12 00:13:02;;;;;;;47.88;6.57;;;;;;;7.82;100.00;99293.28;5064368;28;20131;-80
2023/03/12 00:15:28;;;;;;;46.38;6.97;;;;;;;7.84;100.00;99298.38;5085415;28;20444;-79
2023/03/12 00:17:54;;;;;;;61.35;8.77;;;;;;;7.82;100.00;99295.91;5056257;28;20036;-79
2023/03/12 00:20:22;;;;;;;66.10;8.98;;;;;;;7.80;100.00;99294.44;5075648;28;20028;-79
2023/03/12 00:22:49;;;;;;;63.35;9.02;;;;;;;7.81;100.00;99288.19;5085006;28;20105;-79
2023/03/12 00:25:15;;;;;;;50.72;8.52;;;;;;;7.86;100.00;99298.22;5080611;28;20079;-79
2023/03/12 00:27:42;;;;;;;67.00;8.75;;;;;;;7.85;100.00;99300.03;5091046;28;20032;-79
2023/03/12 00:30:09;;;;;;;54.55;7.78;;;;;;;7.87;100.00;99303.34;5084098;28;20062;-80
2023/03/12 00:32:36;;;;;;;58.45;8.60;;;;;;;7.91;100.00;99307.34;5073814;28;20054;-79
2023/03/12 00:35:04;;;;;;;54.92;8.15;;;;;;;7.91;100.00;99311.75;5095872;28;20074;-80
2023/03/12 00:37:31;;;;;;;50.25;8.43;;;;;;;7.88;100.00;99305.00;5093531;28;20114;-79
2023/03/12 00:39:58;;;;;;;50.45;9.15;;;;;;;7.90;100.00;99307.47;5089634;28;20123;-79
2023/03/12 00:42:24;;;;;;;46.58;8.32;;;;;;;7.89;100.00;99314.53;5085529;28;20039;-79
2023/03/12 00:44:50;;;;;;;59.75;8.90;;;;;;;7.89;100.00;99321.59;5068907;28;20043;-79
2023/03/12 00:47:16;;;;;;;51.50;7.97;;;;;;;7.89;100.00;99322.44;5089603;28;20028;-79
2023/03/12 00:49:42;;;;;;;41.65;6.82;;;;;;;7.92;100.00;99324.75;5089893;28;20084;-79
2023/03/12 00:52:07;;;;;;;47.58;7.30;;;;;;;7.93;100.00;99328.22;5074886;28;20119;-79
2023/03/12 00:54:33;;;;;;;60.88;7.00;;;;;;;7.94;100.00;99327.22;5093514;28;20036;-79
2023/03/12 00:56:59;;;;;;;50.45;8.07;;;;;;;7.96;100.00;99334.97;5056834;28;20039;-79
2023/03/12 00:59:25;;;;;;;66.35;8.43;;;;;;;7.97;100.00;99336.63;5090952;28;20032;-79
2023/03/12 01:01:51;;;;;;;56.17;7.32;;;;;;;7.96;100.00;99341.06;5067953;28;20504;-79
2023/03/12 01:04:16;;;;;;;53.22;7.88;;;;;;;7.94;100.00;99343.84;5083145;28;20059;-79
2023/03/12 01:06:42;;;;;;;63.38;10.82;;;;;;;7.96;100.00;99348.13;5088529;28;20032;-79
2023/03/12 01:09:08;;;;;;;55.22;8.38;;;;;;;7.97;100.00;99355.03;5059039;28;20036;-79
2023/03/12 01:11:35;;;;;;;50.05;7.60;;;;;;;7.99;100.00;99350.44;5058823;28;20048;-79
2023/03/12 01:14:03;;;;;;;59.25;8.70;;;;;;;7.96;100.00;99342.88;5086520;28;20103;-79
2023/03/12 01:16:29;;;;;;;59.30;8.15;;;;;;;7.94;100.00;99351.75;5091949;28;20396;-79
2023/03/12 01:18:57;;;;;;;50.33;7.55;;;;;;;7.93;100.00;99360.59;5090171;28;20111;-79
2023/03/12 01:21:24;;;;;;;46.95;7.55;;;;;;;7.93;100.00;99359.81;5092094;28;20039;-79
2023/03/12 01:23:50;;;;;;;42.10;7.05;;;;;;;7.92;100.00;99348.44;5071252;28;20032;-79
2023/03/12 01:26:16;;;;;;;47.13;6.43;;;;;;;7.92;100.00;99350.22;5070758;28;20042;-79
2023/03/12 01:28:43;;;;;;;54.90;7.78;;;;;;;7.95;100.00;99352.56;5077310;28;20032;-79
2023/03/12 01:31:12;;;;;;;45.75;6.40;;;;;;;7.96;100.00;99348.13;5077653;28;20470;-79
2023/03/12 01:33:38;;;;;;;48.90;7.60;;;;;;;7.96;100.00;99345.50;5083047;28;20033;-79
2023/03/12 01:36:05;;;;;;;43.10;6.25;;;;;;;7.98;100.00;99354.88;5086506;28;20028;-79
2023/03/12 01:38:30;;;;;;;46.88;6.82;;;;;;;7.99;100.00;99350.44;5067675;28;20040;-81
2023/03/12 01:40:56;;;;;;;57.17;7.38;;;;;;;7.99;100.00;99356.56;5070344;28;20089;-81
2023/03/12 01:43:33;;;;;;;61.50;6.50;;;;;;;7.98;100.00;99362.78;5068396;28;20462;-81
2023/03/12 01:46:06;;;;;;;55.88;6.95;;;;;;;7.99;100.00;99366.25;5089173;28;20105;-81
2023/03/12 01:49:01;;;;;;;57.38;6.32;;;;;;;8.01;100.00;99373.00;5089683;28;20046;-81
2023/03/12 01:51:42;;;;;;;56.83;7.80;;;;;;;8.02;100.00;99372.03;5086918;28;20036;-81
2023/03/12 01:54:17;;;;;;;56.42;8.43;;;;;;;8.02;100.00;99364.13;5055607;28;20477;-81
2023/03/12 01:56:44;;;;;;;52.85;7.35;;;;;;;8.03;100.00;99364.94;5070665;28;20036;-81
2023/03/12 01:59:19;;;;;;;48.42;6.95;;;;;;;8.11;100.00;99385.22;5072306;28;20039;-81
2023/03/12 02:01:45;;;;;;;56.83;8.00;;;;;;;8.05;100.00;99386.66;5087898;28;20100;-81
2023/03/12 02:04:13;;;;;;;53.65;7.15;;;;;;;8.09;100.00;99376.66;5052076;28;20048;-81
2023/03/12 02:07:01;;;;;;;46.50;8.45;;;;;;;8.14;100.00;99371.75;5089693;28;20396;-81
2023/03/12 02:09:27;;;;;;;54.75;7.07;;;;;;;8.12;100.00;99360.56;5070746;28;20063;-80
2023/03/12 02:11:53;;;;;;;43.50;6.15;;;;;;;8.13;100.00;99360.41;5055455;28;20050;-80
2023/03/12 02:14:19;;;;;;;50.88;7.70;;;;;;;8.15;100.00;99349.72;5061580;28;20393;-80
2023/03/12 02:16:45;;;;;;;59.70;7.60;;;;;;;8.15;100.00;99352.34;5087751;28;20669;-81
2023/03/12 02:19:43;;;;;;;46.15;6.35;;;;;;;8.16;100.00;99349.56;5087927;28;20043;-80
2023/03/12 02:22:10;;;;;;;40.08;6.50;;;;;;;8.10;100.00;99347.56;5079352;28;20162;-80
2023/03/12 02:24:47;;;;;;;44.70;6.97;;;;;;;8.12;100.00;99344.78;5069409;28;20028;-80
2023/03/12 02:27:13;;;;;;;48.35;6.50;;;;;;;8.06;100.00;99336.50;5063062;28;20036;-80
2023/03/12 02:29:42;;;;;;;50.55;7.03;;;;;;;8.07;100.00;99335.53;5064502;28;20126;-80
2023/03/12 02:32:27;;;;;;;66.82;8.00;;;;;;;8.05;100.00;99328.78;5069352;28;20557;-80
2023/03/12 02:34:54;;;;;;;47.15;7.55;;;;;;;8.01;100.00;99348.50;5079262;28;20031;-80
2023/03/12 02:37:20;;;;;;;58.70;8.85;;;;;;;7.99;100.00;99350.44;5067285;28;20488;-79
2023/03/12 02:39:55;;;;;;;52.88;7.95;;;;;;;8.00;100.00;99331.03;5055212;28;20032;-79
2023/03/12 02:42:23;;;;;;;47.10;6.25;;;;;;;7.99;100.00;99346.03;5071150;28;20085;-78
2023/03/12 02:44:49;;;;;;;44.60;6.45;;;;;;;7.98;100.00;99356.69;5073679;28;20044;-79
2023/03/12 02:47:16;;;;;;;57.22;7.30;;;;;;;7.97;100.00;99349.78;5069864;28;20036;-80
2023/03/12 02:49:45;;;;;;;56.03;8.40;;;;;;;7.98;100.00;99359.34;5071268;28;20028;-80
2023/03/12 02:52:11;;;;;;;56.53;7.75;;;;;;;7.99;100.00;99374.13;5071883;28;20445;-80
2023/03/12 02:54:37;;;;;;;55.10;8.90;;;;;;;7.99;100.00;99374.13;5069428;28;20396;-80
2023/03/12 02:57:03;;;;;;;46.00;7.80;;;;;;;7.99;100.00;99366.25;5048735;28;20044;-80
2023/03/12 02:59:31;;;;;;;53.35;8.10;;;;;;;8.02;100.00;99360.66;5072091;28;20035;-80
2023/03/12 03:01:59;;;;;;;47.85;7.38;;;;;;;8.06;100.00;99356.72;5059761;28;20515;-81
2023/03/12 03:04:29;;;;;;;54.50;7.05;;;;;;;8.09;100.00;99355.63;5056594;28;20043;-80
2023/03/12 03:06:55;;;;;;;55.63;7.35;;;;;;;8.10;100.00;99362.53;5087823;28;20044;-80
2023/03/12 03:09:21;;;;;;;54.33;6.80;;;;;;;8.10;100.00;99360.72;5053986;28;20044;-80
2023/03/12 03:11:48;;;;;;;43.42;6.97;;;;;;;8.13;100.00;99363.03;5065392;28;20040;-80
2023/03/12 03:14:14;;;;;;;47.28;6.20;;;;;;;8.14;100.00;99353.31;5087815;28;20150;-80
2023/03/12 03:16:40;;;;;;;52.15;7.18;;;;;;;8.16;100.00;99367.16;5071486;28;20032;-80
2023/03/12 03:19:06;;;;;;;45.65;7.22;;;;;;;8.18;100.00;99357.31;5065722;28;20032;-80
2023/03/12 03:21:32;;;;;;;52.92;7.80;;;;;;;8.17;100.00;99359.09;5090992;28;20477;-80
2023/03/12 03:23:58;;;;;;;58.25;7.30;;;;;;;8.18;100.00;99346.78;5055938;28;20039;-80
2023/03/12 03:26:24;;;;;;;44.78;7.18;;;;;;;8.19;100.00;99336.09;5082908;28;20044;-79
2023/03/12 03:28:51;;;;;;;49.13;6.47;;;;;;;8.19;100.00;99322.94;5052500;28;20044;-80
2023/03/12 03:31:18;;;;;;;42.03;6.90;;;;;;;8.20;100.00;99318.50;5082452;28;20089;-80
2023/03/12 03:33:44;;;;;;;56.53;6.65;;;;;;;8.18;100.00;99329.19;5066245;28;20105;-80
2023/03/12 03:36:15;;;;;;;44.97;7.22;;;;;;;8.13;100.00;99330.63;5039263;28;20032;-80
2023/03/12 03:38:55;;;;;;;32.10;5.55;;;;;;;8.10;100.00;99328.31;5081682;28;20048;-80
2023/03/12 03:41:21;;;;;;;48.50;7.05;;;;;;;8.12;100.00;99334.25;5071034;28;20085;-80
2023/03/12 03:43:47;;;;;;;51.30;6.47;;;;;;;8.09;100.00;99334.56;5090054;28;20056;-80
2023/03/12 03:46:16;;;;;;;41.10;6.82;;;;;;;8.06;100.00;99340.94;5087045;28;20040;-80
2023/03/12 03:48:46;;;;;;;44.20;6.40;;;;;;;8.02;100.00;99324.66;5082555;28;20065;-80
2023/03/12 03:51:13;;;;;;;38.70;6.28;;;;;;;8.01;100.00;99340.59;5055117;28;20126;-80
2023/03/12 03:53:43;;;;;;;43.97;6.35;;;;;;;7.97;100.00;99337.44;5094031;28;20085;-78
2023/03/12 03:56:12;;;;;;;42.90;6.90;;;;;;;7.97;100.00;99326.91;5064188;28;20035;-78
2023/03/12 03:58:42;;;;;;;47.92;7.50;;;;;;;7.94;100.00;99324.59;5092487;28;20040;-80
2023/03/12 04:01:08;;;;;;;45.83;7.05;;;;;;;7.92;100.00;99314.22;5052106;28;20370;-80
2023/03/12 04:03:35;;;;;;;51.00;8.02;;;;;;;7.91;100.00;99314.38;5090522;28;20492;-80
2023/03/12 04:06:04;;;;;;;50.15;7.80;;;;;;;7.89;100.00;99329.50;5074323;28;20043;-80
2023/03/12 04:08:34;;;;;;;35.35;6.30;;;;;;;7.85;100.00;99333.44;5089600;28;20047;-80
2023/03/12 04:11:29;;;;;;;49.10;6.68;;;;;;;7.78;100.00;99339.31;5067862;28;20034;-80
2023/03/12 04:13:57;;;;;;;47.65;7.68;;;;;;;7.72;100.00;99342.56;5065532;28;20040;-80
2023/03/12 04:16:25;;;;;;;51.05;5.93;;;;;;;7.71;100.00;99332.19;5068663;28;20480;-79
2023/03/12 04:18:52;;;;;;;63.28;6.63;;;;;;;7.69;100.00;99329.72;5072764;28;20040;-80
2023/03/12 04:21:19;;;;;;;41.75;7.93;;;;;;;7.70;100.00;99331.34;5054013;28;20024;-80
2023/03/12 04:23:47;;;;;;;61.33;8.27;;;;;;;7.68;100.00;99342.03;5082811;28;20035;-80
2023/03/12 04:26:13;;;;;;;54.47;7.15;;;;;;;7.68;100.00;99343.81;5075550;28;20055;-80
2023/03/12 04:28:39;;;;;;;44.47;6.38;;;;;;;7.64;100.00;99340.69;5074326;28;20113;-80
2023/03/12 04:31:09;;;;;;;41.88;5.70;;;;;;;7.60;100.00;99341.16;5070675;28;20044;-80
2023/03/12 04:33:39;;;;;;;50.40;6.65;;;;;;;7.57;100.00;99342.25;5072125;28;20044;-80
2023/03/12 04:36:07;;;;;;;44.05;6.32;;;;;;;7.51;100.00;99345.50;5087305;28;20036;-80
2023/03/12 04:38:34;;;;;;;50.92;6.72;;;;;;;7.51;100.00;99366.53;5056283;28;20467;-80
2023/03/12 04:41:01;;;;;;;44.67;5.80;;;;;;;7.51;100.00;99359.47;5080568;28;20037;-80
2023/03/12 04:43:28;;;;;;;43.38;6.35;;;;;;;7.50;100.00;99365.69;5074411;28;20130;-80
2023/03/12 04:45:55;;;;;;;56.13;6.97;;;;;;;7.49;100.00;99358.78;5088182;28;20108;-80
2023/03/12 04:48:20;;;;;;;50.42;6.80;;;;;;;7.47;100.00;99342.34;5089716;28;20094;-79
2023/03/12 04:50:48;;;;;;;65.15;8.15;;;;;;;7.52;100.00;99344.50;5088550;28;20123;-80
2023/03/12 04:53:15;;;;;;;44.28;7.50;;;;;;;7.53;100.00;99341.72;5071939;28;20101;-79
2023/03/12 04:55:41;;;;;;;57.40;7.57;;;;;;;7.56;100.00;99337.97;5089449;28;20059;-79
2023/03/12 04:58:07;;;;;;;52.40;6.45;;;;;;;7.54;100.00;99335.50;5090410;28;20027;-80
2023/03/12 05:00:34;;;;;;;56.92;7.07;;;;;;;7.56;100.00;99314.31;5069578;28;20055;-80
2023/03/12 05:03:00;;;;;;;61.88;7.45;;;;;;;7.56;100.00;99320.38;5061955;28;20072;-80
2023/03/12 05:05:26;;;;;;;58.58;7.63;;;;;;;7.56;100.00;99319.56;5070244;28;20032;-80
2023/03/12 05:07:52;;;;;;;51.42;6.95;;;;;;;7.55;100.00;99318.75;5069195;28;20442;-80
2023/03/12 05:10:18;;;;;;;48.10;7.47;;;;;;;7.55;100.00;99324.00;5049732;28;20055;-80
2023/03/12 05:12:43;;;;;;;48.53;7.50;;;;;;;7.54;100.00;99313.63;5059995;28;20051;-80
2023/03/12 05:15:10;;;;;;;40.90;6.45;;;;;;;7.55;100.00;99308.22;5052570;28;20020;-80
2023/03/12 05:17:36;;;;;;;54.40;7.68;;;;;;;7.51;100.00;99313.94;5084440;28;20040;-80
2023/03/12 05:20:05;;;;;;;46.30;5.65;;;;;;;7.52;100.00;99324.31;5071184;28;20043;-80
2023/03/12 05:22:30;;;;;;;51.78;7.25;;;;;;;7.53;100.00;99336.47;5070432;28;20035;-80
2023/03/12 05:24:56;;;;;;;51.08;6.95;;;;;;;7.50;100.00;99336.78;5086987;28;20025;-80
2023/03/12 05:27:24;;;;;;;52.28;6.72;;;;;;;7.49;100.00;99323.78;5071005;28;20032;-80
2023/03/12 05:29:51;;;;;;;51.40;7.82;;;;;;;7.50;100.00;99331.50;5069846;28;20036;-80
2023/03/12 05:32:18;;;;;;;44.53;6.50;;;;;;;7.47;100.00;99325.75;5080125;28;20148;-78
2023/03/12 05:34:44;;;;;;;47.00;5.55;;;;;;;7.41;100.00;99321.91;5073112;28;20016;-78
2023/03/12 05:37:10;;;;;;;40.90;7.05;;;;;;;7.39;100.00;99310.75;5086132;28;20048;-79
2023/03/12 05:39:37;;;;;;;57.95;7.50;;;;;;;7.35;100.00;99323.34;5054657;28;20512;-78
2023/03/12 05:42:04;;;;;;;52.15;7.10;;;;;;;7.30;100.00;99342.22;5074380;28;20039;-80
2023/03/12 05:44:31;;;;;;;52.20;6.72;;;;;;;7.27;100.00;99354.81;5063418;28;20047;-80
2023/03/12 05:46:56;;;;;;;49.08;8.32;;;;;;;7.23;100.00;99351.66;5084861;28;20038;-79
2023/03/12 05:49:25;;;;;;;43.10;6.35;;;;;;;7.17;100.00;99353.09;5085796;28;20027;-79
2023/03/12 05:51:52;;;;;;;54.15;6.82;;;;;;;7.11;100.00;99358.09;5057768;28;20032;-80
2023/03/12 05:54:20;;;;;;;44.83;7.40;;;;;;;7.05;100.00;99359.53;5088501;28;20020;-80
2023/03/12 05:56:49;;;;;;;50.17;6.05;;;;;;;6.97;100.00;99346.31;5084705;28;20043;-80
2023/03/12 05:59:15;;;;;;;44.72;5.65;;;;;;;6.92;100.00;99342.34;5046429;28;20043;-80
2023/03/12 06:01:42;;;;;;;55.65;6.13;;;;;;;6.88;100.00;99330.44;5071942;28;20114;-80
2023/03/12 06:04:08;;;;;;;39.50;6.43;;;;;;;6.81;100.00;99346.00;5058561;28;20497;-80
2023/03/12 06:06:36;;;;;;;40.88;7.20;;;;;;;6.77;100.00;99335.94;5062598;28;20048;-79
2023/03/12 06:09:03;;;;;;;50.97;7.75;;;;;;;6.70;100.00;99346.19;5056345;28;20443;-78
2023/03/12 06:11:31;;;;;;;50.35;9.20;;;;;;;6.65;100.00;99364.16;5069399;28;20031;-79
2023/03/12 06:13:57;;;;;;;47.08;8.15;;;;;;;6.60;100.00;99371.66;5059973;28;20089;-79
2023/03/12 06:16:26;;;;;;;39.42;5.03;;;;;;;6.53;100.00;99364.34;5055175;28;20398;-79
2023/03/12 06:19:01;;;;;;;47.30;6.75;;;;;;;6.48;100.00;99355.28;5070030;28;20139;-80
2023/03/12 06:21:29;;;;;;;49.70;6.00;;;;;;;6.42;100.00;99349.63;5054673;28;20066;-80
2023/03/12 06:23:55;;;;;;;45.72;7.07;;;;;;;6.45;100.00;99349.31;5076558;28;20492;-80
2023/03/12 06:26:26;;;;;;;51.50;6.05;;;;;;;6.45;100.00;99346.69;5069658;28;20040;-80
2023/03/12 06:28:53;;;;;;;44.78;5.47;;;;;;;6.42;100.00;99341.75;5088105;28;20115;-80
2023/03/12 06:31:20;;;;;;;48.20;5.38;;;;;;;6.42;100.00;99346.16;5072576;28;20052;-80
2023/03/12 06:33:46;;;;;;;54.20;7.45;;;;;;;6.39;100.00;99347.28;5062759;28;20118;-80
2023/03/12 06:36:12;;;;;;;41.17;5.82;;;;;;;6.38;100.00;99350.91;5047517;28;20037;-80
2023/03/12 06:38:39;;;;;;;49.90;7.07;;;;;;;6.39;100.00;99349.91;5082902;28;20123;-80
2023/03/12 06:41:13;;;;;;;35.90;5.32;;;;;;;6.41;100.00;99347.13;5070735;28;20044;-80
2023/03/12 06:43:40;;;;;;;39.65;6.18;;;;;;;6.40;100.00;99333.19;5088973;28;20368;-80
2023/03/12 06:46:10;;;;;;;49.33;6.10;;;;;;;6.45;100.00;99325.69;5086106;28;20040;-80
2023/03/12 06:48:36;;;;;;;41.63;5.85;;;;;;;6.49;100.00;99334.13;5060297;28;20114;-78
2023/03/12 06:51:03;;;;;;;44.30;5.88;;;;;;;6.54;100.00;99325.81;5091514;28;20028;-78
2023/03/12 06:53:30;;;;;;;42.65;6.75;;;;;;;6.52;100.00;99327.75;5085484;28;20112;-80
2023/03/12 06:55:55;;;;;;;44.17;6.60;;;;;;;6.49;100.00;99331.50;5065566;28;20040;-80
2023/03/12 06:58:21;;;;;;;51.22;6.28;;;;;;;6.48;100.00;99321.16;5086672;28;20027;-80
2023/03/12 07:00:47;;;;;;;50.78;7.40;;;;;;;6.47;100.00;99311.63;5088241;28;20040;-80
2023/03/12 07:03:13;;;;;;;49.58;7.85;;;;;;;6.45;100.00;99306.50;5082510;28;20500;-80
2023/03/12 07:05:42;;;;;;;40.28;5.32;;;;;;;6.44;100.00;99304.84;5046787;28;20093;-80
2023/03/12 07:08:07;;;;;;;41.33;6.68;;;;;;;6.46;100.00;99313.41;5076695;28;20070;-80
2023/03/12 07:10:33;;;;;;;54.78;6.63;;;;;;;6.47;100.00;99314.25;5058813;28;20043;-80
2023/03/12 07:12:59;;;;;;;58.35;7.47;;;;;;;6.48;100.00;99315.91;5088477;28;20093;-78
2023/03/12 07:15:25;;;;;;;50.45;6.97;;;;;;;6.48;100.00;99315.91;5088174;28;20024;-78
2023/03/12 07:17:50;;;;;;;57.08;9.10;;;;;;;6.51;100.00;99310.34;5089273;28;20055;-78
2023/03/12 07:20:16;;;;;;;56.30;9.77;;;;;;;6.53;100.00;99305.78;5060811;28;20069;-78
2023/03/12 07:22:42;;;;;;;58.38;12.30;;;;;;;6.56;100.00;99318.63;5059390;28;20040;-80
2023/03/12 07:25:08;;;;;;;83.05;27.83;;;;;;;6.57;100.00;99307.97;5096475;28;20032;-80
2023/03/12 07:27:34;;;;;;;64.35;15.30;;;;;;;6.58;100.00;99314.88;5095274;28;20037;-80
2023/03/12 07:30:00;;;;;;;63.55;18.65;;;;;;;6.61;100.00;99305.88;5091979;28;20028;-80
2023/03/12 07:32:26;;;;;;;60.97;17.98;;;;;;;6.65;100.00;99299.38;5093283;28;20032;-78
2023/03/12 07:34:55;;;;;;;62.15;21.17;;;;;;;6.69;100.00;99289.38;5082674;28;20270;-78
2023/03/12 07:37:21;;;;;;;74.00;22.80;;;;;;;6.69;100.00;99292.00;5090523;28;20107;-80
2023/03/12 07:39:51;;;;;;;81.45;24.42;;;;;;;6.70;100.00;99291.03;5082575;28;20547;-81
2023/03/12 07:42:17;;;;;;;64.78;20.05;;;;;;;6.74;100.00;99291.56;5073591;28;20187;-80
2023/03/12 07:44:43;;;;;;;75.20;29.20;;;;;;;6.79;100.00;99289.31;5089852;28;20043;-80
2023/03/12 07:47:09;;;;;;;120.03;44.83;;;;;;;6.80;100.00;99299.66;5090784;28;20031;-80
2023/03/12 07:49:34;;;;;;;92.05;37.35;;;;;;;6.84;100.00;99276.56;5091222;28;20036;-80
2023/03/12 07:52:00;;;;;;;57.42;12.90;;;;;;;6.85;100.00;99275.59;5072536;28;20028;-80
2023/03/12 07:54:29;;;;;;;59.95;20.23;;;;;;;6.88;100.00;99282.34;5075430;28;20040;-80
2023/03/12 07:56:56;;;;;;;50.78;12.48;;;;;;;6.90;100.00;99272.50;5075507;28;20070;-80
2023/03/12 07:59:22;;;;;;;46.55;9.52;;;;;;;6.91;100.00;99253.97;5062628;28;20032;-80
2023/03/12 08:01:48;;;;;;;46.70;9.38;;;;;;;6.93;100.00;99252.03;5080572;28;20032;-80
2023/03/12 08:04:14;;;;;;;43.38;6.85;;;;;;;6.94;100.00;99237.91;5090821;28;20523;-80
2023/03/12 08:06:41;;;;;;;45.83;11.27;;;;;;;6.98;100.00;99233.19;5090404;28;20032;-79
2023/03/12 08:09:08;;;;;;;44.60;7.65;;;;;;;7.01;100.00;99218.91;5084061;28;20028;-78
2023/03/12 08:11:35;;;;;;;49.17;6.68;;;;;;;7.02;100.00;99218.78;5071712;28;20036;-80
2023/03/12 08:14:02;;;;;;;46.70;7.22;;;;;;;7.06;100.00;99214.88;5087274;28;20058;-80
2023/03/12 08:16:28;;;;;;;49.67;7.00;;;;;;;7.13;100.00;99216.88;5083491;28;20028;-80
2023/03/12 08:18:54;;;;;;;41.30;6.80;;;;;;;7.18;100.00;99225.16;5073825;28;20035;-80
2023/03/12 08:21:19;;;;;;;34.95;4.97;;;;;;;7.19;100.00;99217.09;5068840;28;20036;-80
2023/03/12 08:23:45;;;;;;;38.55;5.72;;;;;;;7.20;100.00;99204.78;5082225;28;20096;-80
2023/03/12 08:26:11;;;;;;;35.05;5.28;;;;;;;7.20;100.00;99216.13;5053080;28;20404;-81
2023/03/12 08:28:37;;;;;;;37.75;5.65;;;;;;;7.18;100.00;99210.19;5074060;28;20036;-80
2023/03/12 08:31:03;;;;;;;37.53;5.10;;;;;;;7.21;100.00;99198.56;5043031;28;20046;-80
2023/03/12 08:33:29;;;;;;;48.08;8.25;;;;;;;7.19;100.00;99185.56;5090891;28;20031;-80
2023/03/12 08:35:55;;;;;;;48.08;5.70;;;;;;;7.21;100.00;99195.94;5063972;28;20037;-80
2023/03/12 08:38:20;;;;;;;29.23;5.30;;;;;;;7.26;100.00;99191.00;5066832;28;20028;-79
2023/03/12 08:40:46;;;;;;;41.35;7.22;;;;;;;7.36;100.00;99187.50;5091462;28;20404;-79
2023/03/12 08:43:12;;;;;;;48.35;7.60;;;;;;;7.44;100.00;99196.25;5091775;28;20101;-80
2023/03/12 08:45:38;;;;;;;57.50;8.65;;;;;;;7.54;100.00;99204.03;5083211;28;20400;-81
2023/03/12 08:48:05;;;;;;;46.05;7.28;;;;;;;7.69;100.00;99204.25;5092937;28;20031;-78
2023/03/12 08:50:32;;;;;;;36.45;6.13;;;;;;;7.80;100.00;99205.78;5066085;28;20032;-78
2023/03/12 08:52:58;;;;;;;56.05;7.65;;;;;;;7.92;100.00;99195.00;5071093;28;20554;-79
2023/03/12 08:55:26;;;;;;;48.45;5.57;;;;;;;7.98;100.00;99189.09;5079526;28;20028;-79
2023/03/12 08:57:53;;;;;;;40.50;6.32;;;;;;;8.06;100.00;99191.78;5078437;28;20348;-80
2023/03/12 09:00:19;;;;;;;53.95;6.63;;;;;;;8.10;100.00;99186.19;5068866;28;20366;-80
2023/03/12 09:02:46;;;;;;;52.65;5.95;;;;;;;8.14;100.00;99172.53;5069817;28;20063;-78
2023/03/12 09:05:12;;;;;;;30.83;5.78;;;;;;;8.16;100.00;99172.38;5069518;28;20767;-79
2023/03/12 09:07:38;;;;;;;43.15;6.53;;;;;;;8.21;100.00;99170.09;5061527;28;20555;-80
2023/03/12 09:10:04;;;;;;;42.42;6.88;;;;;;;8.30;100.00;99155.97;5093428;28;20047;-80
2023/03/12 09:12:30;;;;;;;41.92;7.05;;;;;;;8.36;100.00;99145.78;5089992;28;20039;-80
2023/03/12 09:14:56;;;;;;;48.65;6.35;;;;;;;8.41;100.00;99143.47;5079261;28;20031;-80
2023/03/12 09:17:22;;;;;;;46.78;7.20;;;;;;;8.49;100.00;99143.50;5074929;28;20039;-79
2023/03/12 09:19:48;;;;;;;37.58;7.60;;;;;;;8.56;100.00;99136.63;5097015;28;20449;-78
2023/03/12 09:22:13;;;;;;;44.83;7.57;;;;;;;8.63;100.00;99130.72;5090127;28;20036;-80
2023/03/12 09:24:39;;;;;;;45.15;6.47;;;;;;;8.68;100.00;99131.84;5069298;28;20050;-80
2023/03/12 09:27:05;;;;;;;46.03;11.80;;;;;;;8.72;100.00;99129.72;5087842;28;20481;-79
2023/03/12 09:29:32;;;;;;;47.70;8.20;;;;;;;8.80;100.00;99131.53;5091209;28;20039;-78
2023/03/12 09:31:58;;;;;;;51.53;7.68;;;;;;;8.84;100.00;99117.03;5059940;28;20040;-80
2023/03/12 09:34:23;;;;;;;40.58;7.32;;;;;;;8.86;100.00;99117.69;5090950;28;20114;-80
2023/03/12 09:36:49;;;;;;;37.60;6.00;;;;;;;8.95;100.00;99113.22;5088588;28;20039;-80
2023/03/12 09:39:16;;;;;;;39.58;8.73;;;;;;;9.04;100.00;99112.25;5089247;28;20031;-80
2023/03/12 09:41:46;;;;;;;45.75;11.05;;;;;;;9.21;100.00;99120.09;5089939;28;20031;-80
2023/03/12 09:44:24;;;;;;;51.20;8.80;;;;;;;9.33;100.00;99117.13;5084089;28;20039;-80
2023/03/12 09:46:54;;;;;;;38.75;8.95;;;;;;;9.50;100.00;99120.50;5081151;28;20044;-80
2023/03/12 09:49:33;;;;;;;38.53;7.63;;;;;;;9.49;100.00;99119.69;5091822;28;20145;-80
2023/03/12 09:52:07;;;;;;;42.17;7.10;;;;;;;9.49;100.00;99122.31;5103848;28;20050;-80
2023/03/12 09:54:42;;;;;;;41.70;6.63;;;;;;;9.45;100.00;99112.28;5101170;28;20552;-80
2023/03/12 09:57:22;;;;;;;44.88;7.95;;;;;;;9.49;100.00;99118.88;5090362;28;20561;-79
2023/03/12 09:59:50;;;;;;;38.95;7.65;;;;;;;9.51;100.00;99115.06;5071596;28;20029;-78
2023/03/12 10:02:37;;;;;;;51.55;7.22;;;;;;;9.59;100.00;99106.31;5090998;28;20051;-78
2023/03/12 10:05:16;;;;;;;44.88;6.82;;;;;;;9.64;100.00;99109.25;5091443;28;20089;-79
2023/03/12 10:07:49;;;;;;;51.72;8.30;;;;;;;9.72;100.00;99107.56;5067068;28;20036;-79
2023/03/12 10:10:27;;;;;;;48.25;7.65;;;;;;;9.77;100.00;99102.59;5072539;28;20028;-79
2023/03/12 10:13:23;;;;;;;43.75;7.05;;;;;;;9.74;100.00;99114.34;5066998;28;20051;-79
2023/03/12 10:16:04;;;;;;;45.65;8.48;;;;;;;9.78;100.00;99123.53;5078535;28;20038;-80
2023/03/12 10:19:21;;;;;;;44.75;7.15;;;;;;;9.82;100.00;99107.34;5070953;28;20033;-78
2023/03/12 10:22:17;;;;;;;48.05;8.13;;;;;;;9.87;100.00;99108.50;5015797;27;20056;-80
2023/03/12 10:24:52;;;;;;;48.13;7.95;;;;;;;9.93;100.00;99117.53;5100495;28;20044;-80
2023/03/12 10:27:22;;;;;;;50.25;7.22;;;;;;;9.95;100.00;99118.19;5052256;28;20032;-82
2023/03/12 10:29:52;;;;;;;47.40;7.35;;;;;;;9.95;100.00;99120.00;5089678;28;20081;-81
2023/03/12 10:32:45;;;;;;;41.63;6.43;;;;;;;9.96;100.00;99125.09;5063586;28;20031;-80
2023/03/12 10:35:20;;;;;;;29.73;5.55;;;;;;;9.90;100.00;99109.97;5066921;28;20522;-80
2023/03/12 10:37:50;;;;;;;54.25;7.38;;;;;;;9.86;100.00;99101.56;5092767;28;20039;-79
2023/03/12 10:40:20;;;;;;;41.55;7.07;;;;;;;9.80;100.00;99100.44;5083604;28;20040;-78
2023/03/12 10:42:45;;;;;;;45.88;7.72;;;;;;;9.75;100.00;99099.31;5083341;28;20419;-80
2023/03/12 10:45:29;;;;;;;46.38;10.13;;;;;;;9.83;100.00;99104.53;5085056;28;20040;-80
2023/03/12 10:48:01;;;;;;;41.83;7.10;;;;;;;9.88;100.00;99099.59;5067101;28;20040;-81
2023/03/12 10:50:32;;;;;;;44.33;6.68;;;;;;;9.90;100.00;99099.41;5059422;28;20031;-81
2023/03/12 10:53:24;;;;;;;36.88;6.72;;;;;;;9.98;100.00;99094.09;5083140;28;20032;-80
2023/03/12 10:56:11;;;;;;;42.67;7.00;;;;;;;9.97;100.00;99099.53;5068816;28;20139;-80
2023/03/12 10:58:43;;;;;;;46.80;7.45;;;;;;;10.00;100.00;99096.56;5076542;28;20060;-80
2023/03/12 11:01:23;;;;;;;40.97;6.68;;;;;;;10.08;100.00;99090.41;5042740;28;20481;-80
2023/03/12 11:03:51;;;;;;;41.75;7.13;;;;;;;10.15;100.00;99088.69;5074252;28;20048;-81
2023/03/12 11:06:24;;;;;;;41.25;6.65;;;;;;;10.28;100.00;99082.84;5045739;28;20047;-81
2023/03/12 11:09:08;;;;;;;39.25;5.93;;;;;;;10.38;100.00;99078.13;5086729;28;20038;-80
2023/03/12 11:11:35;;;;;;;44.85;5.88;;;;;;;10.41;100.00;99084.88;5070367;28;20388;-80
2023/03/12 11:14:29;;;;;;;32.25;5.63;;;;;;;10.45;100.00;99075.59;5085299;28;20042;-81
2023/03/12 11:16:56;;;;;;;42.47;6.47;;;;;;;10.49;100.00;99071.66;5057626;28;20437;-80
2023/03/12 11:19:28;;;;;;;42.65;6.10;;;;;;;10.53;100.00;99067.66;5088259;28;20039;-81
2023/03/12 11:22:02;;;;;;;44.42;5.72;;;;;;;10.50;100.00;99044.22;5094149;28;20035;-80
2023/03/12 11:24:28;;;;;;;32.20;5.40;;;;;;;10.46;100.00;99053.53;5086177;28;20036;-80
2023/03/12 11:27:25;;;;;;;34.92;6.35;;;;;;;10.50;100.00;99068.00;5067230;28;20078;-81
2023/03/12 11:29:53;;;;;;;36.22;6.32;;;;;;;10.51;100.00;99052.97;5083680;28;20085;-80
2023/03/12 11:32:27;;;;;;;36.25;7.35;;;;;;;10.57;100.00;99039.06;5087186;28;20039;-81